sensor_id;sensor_type;location;lat;lon;timestamp;pressure;altitude;pressure_sealevel;temperature;humidity
39105;BME280;46464;51.154;13.812;2023-05-27T00:01:25;52177.66;;;-146.96;68.30
39105;BME280;46464;51.154;13.812;2023-05-27T00:03:52;52187.84;;;-146.96;68.34
39105;BME280;46464;51.154;13.812;2023-05-27T00:06:22;52175.63;;;-146.96;68.77
39105;BME280;46464;51.154;13.812;2023-05-27T00:08:48;52169.53;;;-146.96;68.96
39105;BME280;46464;51.154;13.812;2023-05-27T00:11:15;52165.44;;;-146.96;69.03
39105;BME280;46464;51.154;13.812;2023-05-27T00:13:42;52185.81;;;-146.96;69.11
39105;BME280;46464;51.154;13.812;2023-05-27T00:16:08;52183.75;;;-146.96;69.04
39105;BME280;46464;51.154;13.812;2023-05-27T00:18:35;52200.03;;;-146.96;69.15
39105;BME280;46464;51.154;13.812;2023-05-27T00:21:03;52214.28;;;-146.96;69.15
39105;BME280;46464;51.154;13.812;2023-05-27T00:23:38;52212.25;;;-146.96;69.36
39105;BME280;46464;51.154;13.812;2023-05-27T00:26:11;52200.03;;;-146.96;69.51
39105;BME280;46464;51.154;13.812;2023-05-27T00:28:43;52181.72;;;-146.96;69.69
39105;BME280;46464;51.154;13.812;2023-05-27T00:31:12;52224.47;;;-146.96;69.65
39105;BME280;46464;51.154;13.812;2023-05-27T00:33:38;52198.00;;;-146.96;69.44
39105;BME280;46464;51.154;13.812;2023-05-27T00:36:05;52183.75;;;-146.96;69.97
39105;BME280;46464;51.154;13.812;2023-05-27T00:38:35;52187.84;;;-146.96;70.31
39105;BME280;46464;51.154;13.812;2023-05-27T00:41:06;52181.72;;;-146.96;70.56
39105;BME280;46464;51.154;13.812;2023-05-27T00:43:41;52212.25;;;-146.96;70.86
39105;BME280;46464;51.154;13.812;2023-05-27T00:46:13;52214.28;;;-146.96;70.79
39105;BME280;46464;51.154;13.812;2023-05-27T00:48:39;52222.41;;;-146.96;71.17
39105;BME280;46464;51.154;13.812;2023-05-27T00:51:12;52177.66;;;-146.96;71.31
39105;BME280;46464;51.154;13.812;2023-05-27T00:53:45;52238.69;;;-146.96;71.50
39105;BME280;46464;51.154;13.812;2023-05-27T00:56:18;52202.06;;;-146.96;71.75
39105;BME280;46464;51.154;13.812;2023-05-27T00:58:47;52226.50;;;-146.96;72.00
39105;BME280;46464;51.154;13.812;2023-05-27T01:01:16;52195.97;;;-146.96;72.14
39105;BME280;46464;51.154;13.812;2023-05-27T01:03:47;52230.56;;;-146.96;72.31
39105;BME280;46464;51.154;13.812;2023-05-27T01:06:15;52195.97;;;-146.96;72.53
39105;BME280;46464;51.154;13.812;2023-05-27T01:08:54;52222.41;;;-146.96;72.58
39105;BME280;46464;51.154;13.812;2023-05-27T01:11:27;52206.16;;;-146.96;72.69
39105;BME280;46464;51.154;13.812;2023-05-27T01:13:59;52220.38;;;-146.96;72.53
39105;BME280;46464;51.154;13.812;2023-05-27T01:16:34;52179.69;;;-146.96;72.54
39105;BME280;46464;51.154;13.812;2023-05-27T01:19:02;52212.25;;;-146.96;72.97
39105;BME280;46464;51.154;13.812;2023-05-27T01:21:33;52226.50;;;-146.96;73.05
39105;BME280;46464;51.154;13.812;2023-05-27T01:24:05;52216.31;;;-146.96;73.13
39105;BME280;46464;51.154;13.812;2023-05-27T01:26:32;52244.81;;;-146.96;73.25
39105;BME280;46464;51.154;13.812;2023-05-27T01:29:02;52240.75;;;-146.96;73.14
39105;BME280;46464;51.154;13.812;2023-05-27T01:31:41;52236.66;;;-146.96;73.38
39105;BME280;46464;51.154;13.812;2023-05-27T01:34:09;52236.66;;;-146.96;73.57
39105;BME280;46464;51.154;13.812;2023-05-27T01:36:43;52220.38;;;-146.96;73.64
39105;BME280;46464;51.154;13.812;2023-05-27T01:39:14;52240.75;;;-146.96;73.81
39105;BME280;46464;51.154;13.812;2023-05-27T01:41:44;52238.69;;;-146.96;73.79
39105;BME280;46464;51.154;13.812;2023-05-27T01:44:18;52244.81;;;-146.96;73.98
39105;BME280;46464;51.154;13.812;2023-05-27T01:46:48;52242.78;;;-146.96;74.14
39105;BME280;46464;51.154;13.812;2023-05-27T01:49:17;52244.81;;;-146.96;73.81
39105;BME280;46464;51.154;13.812;2023-05-27T01:51:47;52259.03;;;-146.96;74.29
39105;BME280;46464;51.154;13.812;2023-05-27T01:54:14;52240.75;;;-146.96;74.26
39105;BME280;46464;51.154;13.812;2023-05-27T01:56:44;52267.19;;;-146.96;74.64
39105;BME280;46464;51.154;13.812;2023-05-27T01:59:20;52238.69;;;-146.96;75.05
39105;BME280;46464;51.154;13.812;2023-05-27T02:01:49;52291.59;;;-146.96;75.06
39105;BME280;46464;51.154;13.812;2023-05-27T02:04:21;52261.09;;;-146.96;74.92
39105;BME280;46464;51.154;13.812;2023-05-27T02:06:47;52283.47;;;-146.96;74.94
39105;BME280;46464;51.154;13.812;2023-05-27T02:09:17;52281.44;;;-146.96;74.97
39105;BME280;46464;51.154;13.812;2023-05-27T02:11:44;52277.34;;;-146.96;73.86
39105;BME280;46464;51.154;13.812;2023-05-27T02:14:11;52301.78;;;-146.96;74.30
39105;BME280;46464;51.154;13.812;2023-05-27T02:16:44;52324.16;;;-146.96;74.65
39105;BME280;46464;51.154;13.812;2023-05-27T02:19:11;52305.84;;;-146.96;75.08
39105;BME280;46464;51.154;13.812;2023-05-27T02:21:42;52301.78;;;-146.96;74.90
39105;BME280;46464;51.154;13.812;2023-05-27T02:24:10;52285.50;;;-146.96;75.50
39105;BME280;46464;51.154;13.812;2023-05-27T02:26:48;52320.09;;;-146.96;75.31
39105;BME280;46464;51.154;13.812;2023-05-27T02:29:35;52285.50;;;-146.96;75.52
39105;BME280;46464;51.154;13.812;2023-05-27T02:32:02;52281.44;;;-146.96;75.49
39105;BME280;46464;51.154;13.812;2023-05-27T02:34:32;52254.97;;;-146.96;75.57
39105;BME280;46464;51.154;13.812;2023-05-27T02:37:07;52285.50;;;-146.96;75.63
39105;BME280;46464;51.154;13.812;2023-05-27T02:39:38;52273.28;;;-146.96;75.63
39105;BME280;46464;51.154;13.812;2023-05-27T02:42:04;52293.63;;;-146.96;75.63
39105;BME280;46464;51.154;13.812;2023-05-27T02:44:37;52293.63;;;-146.96;75.83
39105;BME280;46464;51.154;13.812;2023-05-27T02:47:04;52328.22;;;-146.96;75.70
39105;BME280;46464;51.154;13.812;2023-05-27T02:49:30;52271.25;;;-146.96;75.95
39105;BME280;46464;51.154;13.812;2023-05-27T02:52:03;52309.91;;;-146.96;75.89
39105;BME280;46464;51.154;13.812;2023-05-27T02:54:33;52299.75;;;-146.96;76.31
39105;BME280;46464;51.154;13.812;2023-05-27T02:57:08;52279.41;;;-146.96;76.00
39105;BME280;46464;51.154;13.812;2023-05-27T02:59:47;52293.63;;;-146.96;76.19
39105;BME280;46464;51.154;13.812;2023-05-27T03:02:21;52271.25;;;-146.96;76.22
39105;BME280;46464;51.154;13.812;2023-05-27T03:04:48;52254.97;;;-146.96;76.28
39105;BME280;46464;51.154;13.812;2023-05-27T03:07:17;52326.19;;;-146.96;76.72
39105;BME280;46464;51.154;13.812;2023-05-27T03:09:52;52301.78;;;-146.96;76.88
39105;BME280;46464;51.154;13.812;2023-05-27T03:12:21;52313.97;;;-146.96;76.96
39105;BME280;46464;51.154;13.812;2023-05-27T03:14:49;52297.72;;;-146.96;76.91
39105;BME280;46464;51.154;13.812;2023-05-27T03:17:23;52265.16;;;-146.96;77.14
39105;BME280;46464;51.154;13.812;2023-05-27T03:19:52;52305.84;;;-146.96;77.01
39105;BME280;46464;51.154;13.812;2023-05-27T03:22:26;52305.84;;;-146.96;76.96
39105;BME280;46464;51.154;13.812;2023-05-27T03:24:59;52305.84;;;-146.96;77.13
39105;BME280;46464;51.154;13.812;2023-05-27T03:27:28;52273.28;;;-146.96;77.43
39105;BME280;46464;51.154;13.812;2023-05-27T03:30:06;52275.31;;;-146.96;77.33
39105;BME280;46464;51.154;13.812;2023-05-27T03:32:40;52313.97;;;-146.96;77.34
39105;BME280;46464;51.154;13.812;2023-05-27T03:35:13;52328.22;;;-146.96;77.50
39105;BME280;46464;51.154;13.812;2023-05-27T03:37:39;52293.63;;;-146.96;77.38
39105;BME280;46464;51.154;13.812;2023-05-27T03:40:06;52295.66;;;-146.96;77.56
39105;BME280;46464;51.154;13.812;2023-05-27T03:42:35;52322.13;;;-146.96;78.26
39105;BME280;46464;51.154;13.812;2023-05-27T03:45:08;52303.81;;;-146.96;78.39
39105;BME280;46464;51.154;13.812;2023-05-27T03:47:37;52328.22;;;-146.96;77.95
39105;BME280;46464;51.154;13.812;2023-05-27T03:50:04;52295.66;;;-146.96;77.98
39105;BME280;46464;51.154;13.812;2023-05-27T03:52:34;52320.09;;;-146.96;77.93
39105;BME280;46464;51.154;13.812;2023-05-27T03:55:13;52322.13;;;-146.96;77.99
39105;BME280;46464;51.154;13.812;2023-05-27T03:57:50;52320.09;;;-146.96;77.96
39105;BME280;46464;51.154;13.812;2023-05-27T04:00:19;52303.81;;;-146.96;78.20
39105;BME280;46464;51.154;13.812;2023-05-27T04:02:45;52293.63;;;-146.96;78.23
39105;BME280;46464;51.154;13.812;2023-05-27T04:05:16;52265.16;;;-146.96;78.39
39105;BME280;46464;51.154;13.812;2023-05-27T04:07:43;52279.41;;;-146.96;78.65
39105;BME280;46464;51.154;13.812;2023-05-27T04:10:12;52281.44;;;-146.96;78.88
39105;BME280;46464;51.154;13.812;2023-05-27T04:12:40;52285.50;;;-146.96;79.03
39105;BME280;46464;51.154;13.812;2023-05-27T04:17:46;52291.59;;;-146.96;79.06
39105;BME280;46464;51.154;13.812;2023-05-27T04:20:25;52279.41;;;-146.96;79.15
39105;BME280;46464;51.154;13.812;2023-05-27T04:22:58;52250.91;;;-146.96;79.14
39105;BME280;46464;51.154;13.812;2023-05-27T04:25:27;52267.19;;;-146.96;79.03
39105;BME280;46464;51.154;13.812;2023-05-27T04:28:01;52259.03;;;-146.96;79.28
39105;BME280;46464;51.154;13.812;2023-05-27T04:30:37;52273.28;;;-146.96;79.69
39105;BME280;46464;51.154;13.812;2023-05-27T04:33:07;52240.75;;;-146.96;79.63
39105;BME280;46464;51.154;13.812;2023-05-27T04:35:37;52293.63;;;-146.96;80.09
39105;BME280;46464;51.154;13.812;2023-05-27T04:38:10;52259.03;;;-146.96;80.01
39105;BME280;46464;51.154;13.812;2023-05-27T04:40:45;52295.66;;;-146.96;80.75
39105;BME280;46464;51.154;13.812;2023-05-27T04:43:22;52259.03;;;-146.96;81.28
39105;BME280;46464;51.154;13.812;2023-05-27T04:45:52;52257.00;;;-146.96;80.76
39105;BME280;46464;51.154;13.812;2023-05-27T04:48:26;52230.56;;;-146.96;81.45
39105;BME280;46464;51.154;13.812;2023-05-27T04:50:53;52261.09;;;-146.96;81.03
39105;BME280;46464;51.154;13.812;2023-05-27T04:53:26;52210.22;;;-146.96;80.90
39105;BME280;46464;51.154;13.812;2023-05-27T04:55:53;52248.88;;;-146.96;80.68
39105;BME280;46464;51.154;13.812;2023-05-27T04:58:20;52238.69;;;-146.96;80.79
39105;BME280;46464;51.154;13.812;2023-05-27T05:00:50;52218.34;;;-146.96;81.55
39105;BME280;46464;51.154;13.812;2023-05-27T05:03:20;52242.78;;;-146.96;81.46
39105;BME280;46464;51.154;13.812;2023-05-27T05:05:57;52238.69;;;-146.96;81.18
39105;BME280;46464;51.154;13.812;2023-05-27T05:08:23;52214.28;;;-146.96;81.51
39105;BME280;46464;51.154;13.812;2023-05-27T05:10:53;52212.25;;;-146.96;80.62
39105;BME280;46464;51.154;13.812;2023-05-27T05:13:31;52216.31;;;-146.96;81.62
39105;BME280;46464;51.154;13.812;2023-05-27T05:16:04;52210.22;;;-146.96;81.44
39105;BME280;46464;51.154;13.812;2023-05-27T05:18:34;52193.94;;;-146.96;80.98
39105;BME280;46464;51.154;13.812;2023-05-27T05:21:00;52193.94;;;-146.96;80.52
39105;BME280;46464;51.154;13.812;2023-05-27T05:23:30;52195.97;;;-146.96;79.90
39105;BME280;46464;51.154;13.812;2023-05-27T05:26:00;52143.06;;;-146.96;78.37
39105;BME280;46464;51.154;13.812;2023-05-27T05:28:33;52114.59;;;-146.96;77.21
39105;BME280;46464;51.154;13.812;2023-05-27T05:31:05;52092.22;;;-146.96;75.22
39105;BME280;46464;51.154;13.812;2023-05-27T05:34:01;52037.28;;;-146.96;71.47
39105;BME280;46464;51.154;13.812;2023-05-27T05:36:37;52049.47;;;-146.96;67.15
39105;BME280;46464;51.154;13.812;2023-05-27T05:39:05;52008.78;;;-146.96;63.27
39105;BME280;46464;51.154;13.812;2023-05-27T05:41:40;51945.72;;;-146.96;60.00
39105;BME280;46464;51.154;13.812;2023-05-27T05:44:09;51917.22;;;-146.96;57.88
39105;BME280;46464;51.154;13.812;2023-05-27T05:46:37;51923.34;;;-146.96;56.71
39105;BME280;46464;51.154;13.812;2023-05-27T05:49:04;51870.44;;;-146.96;54.92
39105;BME280;46464;51.154;13.812;2023-05-27T05:51:38;51876.53;;;-146.96;54.78
39105;BME280;46464;51.154;13.812;2023-05-27T05:54:10;51862.31;;;-146.96;52.91
39105;BME280;46464;51.154;13.812;2023-05-27T05:56:44;51856.19;;;-146.96;51.37
39105;BME280;46464;51.154;13.812;2023-05-27T05:59:11;51825.69;;;-146.96;50.64
39105;BME280;46464;51.154;13.812;2023-05-27T06:01:37;51782.97;;;-146.96;48.76
39105;BME280;46464;51.154;13.812;2023-05-27T06:04:04;51803.31;;;-146.96;48.87
39105;BME280;46464;51.154;13.812;2023-05-27T06:06:35;51805.34;;;-146.96;49.38
39105;BME280;46464;51.154;13.812;2023-05-27T06:09:02;51780.91;;;-146.96;49.06
39105;BME280;46464;51.154;13.812;2023-05-27T06:11:40;51736.16;;;-146.96;48.55
39105;BME280;46464;51.154;13.812;2023-05-27T06:14:18;51736.16;;;-146.96;48.09
39105;BME280;46464;51.154;13.812;2023-05-27T06:16:53;51723.97;;;-146.96;46.45
39105;BME280;46464;51.154;13.812;2023-05-27T06:19:20;51723.97;;;-146.96;45.07
39105;BME280;46464;51.154;13.812;2023-05-27T06:21:46;51675.13;;;-146.96;44.84
39105;BME280;46464;51.154;13.812;2023-05-27T06:24:16;51658.84;;;-146.96;44.34
39105;BME280;46464;51.154;13.812;2023-05-27T06:26:45;51671.06;;;-146.96;44.04
39105;BME280;46464;51.154;13.812;2023-05-27T06:29:21;51620.19;;;-146.96;43.71
39105;BME280;46464;51.154;13.812;2023-05-27T06:31:49;51589.69;;;-146.96;42.72
39105;BME280;46464;51.154;13.812;2023-05-27T06:34:21;51634.44;;;-146.96;41.92
39105;BME280;46464;51.154;13.812;2023-05-27T06:36:50;51646.66;;;-146.96;42.30
39105;BME280;46464;51.154;13.812;2023-05-27T06:39:25;51675.13;;;-146.96;42.52
39105;BME280;46464;51.154;13.812;2023-05-27T06:41:52;51685.31;;;-146.96;43.47
39105;BME280;46464;51.154;13.812;2023-05-27T06:44:18;51662.94;;;-146.96;43.87
39105;BME280;46464;51.154;13.812;2023-05-27T06:46:55;51658.84;;;-146.96;43.09
39105;BME280;46464;51.154;13.812;2023-05-27T06:49:22;51605.97;;;-146.96;43.59
39105;BME280;46464;51.154;13.812;2023-05-27T06:51:50;51638.50;;;-146.96;43.01
39105;BME280;46464;51.154;13.812;2023-05-27T06:54:22;51642.59;;;-146.96;43.45
39105;BME280;46464;51.154;13.812;2023-05-27T06:56:57;51699.53;;;-146.96;42.98
39105;BME280;46464;51.154;13.812;2023-05-27T06:59:26;51726.00;;;-146.96;44.53
39105;BME280;46464;51.154;13.812;2023-05-27T07:02:03;51734.13;;;-146.96;44.45
39105;BME280;46464;51.154;13.812;2023-05-27T07:04:30;51730.06;;;-146.96;46.72
39105;BME280;46464;51.154;13.812;2023-05-27T07:06:57;51715.81;;;-146.96;44.85
39105;BME280;46464;51.154;13.812;2023-05-27T07:09:35;51754.47;;;-146.96;45.56
39105;BME280;46464;51.154;13.812;2023-05-27T07:12:07;51738.19;;;-146.96;45.90
39105;BME280;46464;51.154;13.812;2023-05-27T07:14:44;51758.53;;;-146.96;45.90
39105;BME280;46464;51.154;13.812;2023-05-27T07:17:11;51703.63;;;-146.96;47.02
39105;BME280;46464;51.154;13.812;2023-05-27T07:19:38;51701.56;;;-146.96;46.16
39105;BME280;46464;51.154;13.812;2023-05-27T07:22:05;51766.69;;;-146.96;45.43
39105;BME280;46464;51.154;13.812;2023-05-27T07:24:36;51744.31;;;-146.96;46.79
39105;BME280;46464;51.154;13.812;2023-05-27T07:27:03;51723.97;;;-146.96;45.89
39105;BME280;46464;51.154;13.812;2023-05-27T07:29:44;51782.97;;;-146.96;47.76
39105;BME280;46464;51.154;13.812;2023-05-27T07:32:17;51766.69;;;-146.96;47.04
39105;BME280;46464;51.154;13.812;2023-05-27T07:34:44;51782.97;;;-146.96;47.64
39105;BME280;46464;51.154;13.812;2023-05-27T07:37:10;51748.38;;;-146.96;46.37
39105;BME280;46464;51.154;13.812;2023-05-27T07:39:37;51782.97;;;-146.96;46.56
39105;BME280;46464;51.154;13.812;2023-05-27T07:42:03;51780.91;;;-146.96;47.08
39105;BME280;46464;51.154;13.812;2023-05-27T07:44:35;51728.03;;;-146.96;47.65
39105;BME280;46464;51.154;13.812;2023-05-27T07:47:03;51723.97;;;-146.96;46.56
39105;BME280;46464;51.154;13.812;2023-05-27T07:49:35;51732.09;;;-146.96;46.44
39105;BME280;46464;51.154;13.812;2023-05-27T07:52:04;51728.03;;;-146.96;46.52
39105;BME280;46464;51.154;13.812;2023-05-27T07:54:31;51738.19;;;-146.96;45.65
39105;BME280;46464;51.154;13.812;2023-05-27T07:57:11;51713.78;;;-146.96;45.93
39105;BME280;46464;51.154;13.812;2023-05-27T07:59:40;51744.31;;;-146.96;44.82
39105;BME280;46464;51.154;13.812;2023-05-27T08:02:17;51764.66;;;-146.96;45.11
39105;BME280;46464;51.154;13.812;2023-05-27T08:04:44;51715.81;;;-146.96;45.96
39105;BME280;46464;51.154;13.812;2023-05-27T08:07:11;51689.38;;;-146.96;45.90
39105;BME280;46464;51.154;13.812;2023-05-27T08:09:37;51703.63;;;-146.96;44.94
39105;BME280;46464;51.154;13.812;2023-05-27T08:12:04;51711.75;;;-146.96;44.15
39105;BME280;46464;51.154;13.812;2023-05-27T08:14:32;51695.47;;;-146.96;44.83
39105;BME280;46464;51.154;13.812;2023-05-27T08:16:58;51701.56;;;-146.96;46.14
39105;BME280;46464;51.154;13.812;2023-05-27T08:19:25;51691.41;;;-146.96;44.63
39105;BME280;46464;51.154;13.812;2023-05-27T08:21:51;51650.72;;;-146.96;46.08
39105;BME280;46464;51.154;13.812;2023-05-27T08:24:18;51711.75;;;-146.96;46.83
39105;BME280;46464;51.154;13.812;2023-05-27T08:26:47;51654.78;;;-146.96;46.66
39105;BME280;46464;51.154;13.812;2023-05-27T08:29:14;51687.34;;;-146.96;44.85
39105;BME280;46464;51.154;13.812;2023-05-27T08:31:41;51630.38;;;-146.96;44.41
39105;BME280;46464;51.154;13.812;2023-05-27T08:34:07;51669.03;;;-146.96;45.01
39105;BME280;46464;51.154;13.812;2023-05-27T08:36:34;51640.53;;;-146.96;45.12
39105;BME280;46464;51.154;13.812;2023-05-27T08:39:01;51642.59;;;-146.96;43.93
39105;BME280;46464;51.154;13.812;2023-05-27T08:41:28;51630.38;;;-146.96;43.48
39105;BME280;46464;51.154;13.812;2023-05-27T08:43:56;51693.44;;;-146.96;43.02
39105;BME280;46464;51.154;13.812;2023-05-27T08:46:42;51622.25;;;-146.96;44.62
39105;BME280;46464;51.154;13.812;2023-05-27T08:49:09;51654.78;;;-146.96;42.49
39105;BME280;46464;51.154;13.812;2023-05-27T08:51:39;51671.06;;;-146.96;43.04
39105;BME280;46464;51.154;13.812;2023-05-27T08:54:07;51667.00;;;-146.96;45.31
39105;BME280;46464;51.154;13.812;2023-05-27T08:56:34;51642.59;;;-146.96;44.89
39105;BME280;46464;51.154;13.812;2023-05-27T08:59:04;51638.50;;;-146.96;43.29
39105;BME280;46464;51.154;13.812;2023-05-27T09:01:37;51622.25;;;-146.96;43.14
39105;BME280;46464;51.154;13.812;2023-05-27T09:04:05;51636.47;;;-146.96;42.32
39105;BME280;46464;51.154;13.812;2023-05-27T09:06:42;51650.72;;;-146.96;42.37
39105;BME280;46464;51.154;13.812;2023-05-27T09:09:10;51646.66;;;-146.96;41.12
39105;BME280;46464;51.154;13.812;2023-05-27T09:11:43;51654.78;;;-146.96;43.50
39105;BME280;46464;51.154;13.812;2023-05-27T09:14:24;51646.66;;;-146.96;43.39
39105;BME280;46464;51.154;13.812;2023-05-27T09:17:07;51626.31;;;-146.96;42.36
39105;BME280;46464;51.154;13.812;2023-05-27T09:19:36;51662.94;;;-146.96;41.04
39105;BME280;46464;51.154;13.812;2023-05-27T09:22:03;51673.09;;;-146.96;40.18
39105;BME280;46464;51.154;13.812;2023-05-27T09:24:31;51689.38;;;-146.96;41.62
39105;BME280;46464;51.154;13.812;2023-05-27T09:27:03;51660.88;;;-146.96;41.79
39105;BME280;46464;51.154;13.812;2023-05-27T09:29:37;51648.69;;;-146.96;42.90
39105;BME280;46464;51.154;13.812;2023-05-27T09:32:04;51650.72;;;-146.96;41.32
39105;BME280;46464;51.154;13.812;2023-05-27T09:34:40;51622.25;;;-146.96;40.99
39105;BME280;46464;51.154;13.812;2023-05-27T09:37:16;51612.06;;;-146.96;41.19
39105;BME280;46464;51.154;13.812;2023-05-27T09:39:54;51575.44;;;-146.96;41.37
39105;BME280;46464;51.154;13.812;2023-05-27T09:42:23;51581.56;;;-146.96;40.64
39105;BME280;46464;51.154;13.812;2023-05-27T09:45:02;51608.00;;;-146.96;40.33
39105;BME280;46464;51.154;13.812;2023-05-27T09:47:33;51624.28;;;-146.96;41.12
39105;BME280;46464;51.154;13.812;2023-05-27T09:50:07;51608.00;;;-146.96;41.19
39105;BME280;46464;51.154;13.812;2023-05-27T09:52:35;51595.78;;;-146.96;39.99
39105;BME280;46464;51.154;13.812;2023-05-27T09:55:14;51591.72;;;-146.96;42.45
39105;BME280;46464;51.154;13.812;2023-05-27T09:57:40;51581.56;;;-146.96;42.89
39105;BME280;46464;51.154;13.812;2023-05-27T10:00:11;51577.47;;;-146.96;41.82
39105;BME280;46464;51.154;13.812;2023-05-27T10:02:41;51571.38;;;-146.96;40.28
39105;BME280;46464;51.154;13.812;2023-05-27T10:05:10;51563.25;;;-146.96;38.81
39105;BME280;46464;51.154;13.812;2023-05-27T10:07:45;51595.78;;;-146.96;39.53
39105;BME280;46464;51.154;13.812;2023-05-27T10:10:32;51603.94;;;-146.96;39.67
39105;BME280;46464;51.154;13.812;2023-05-27T10:12:59;51565.28;;;-146.96;39.40
39105;BME280;46464;51.154;13.812;2023-05-27T10:15:32;51546.97;;;-146.96;38.98
39105;BME280;46464;51.154;13.812;2023-05-27T10:18:01;51528.66;;;-146.96;40.10
39105;BME280;46464;51.154;13.812;2023-05-27T10:28:43;51561.22;;;-146.96;37.51
39105;BME280;46464;51.154;13.812;2023-05-27T10:31:18;51540.88;;;-146.96;41.33
39105;BME280;46464;51.154;13.812;2023-05-27T10:36:45;51540.88;;;-146.96;40.11
39105;BME280;46464;51.154;13.812;2023-05-27T10:39:15;51528.66;;;-146.96;39.42
39105;BME280;46464;51.154;13.812;2023-05-27T10:41:52;51532.72;;;-146.96;38.98
39105;BME280;46464;51.154;13.812;2023-05-27T10:44:35;51536.78;;;-146.96;37.81
39105;BME280;46464;51.154;13.812;2023-05-27T10:47:03;51551.03;;;-146.96;37.86
39105;BME280;46464;51.154;13.812;2023-05-27T10:49:34;51487.97;;;-146.96;36.84
39105;BME280;46464;51.154;13.812;2023-05-27T10:52:05;51538.81;;;-146.96;37.32
39105;BME280;46464;51.154;13.812;2023-05-27T10:54:37;51549.00;;;-146.96;37.80
39105;BME280;46464;51.154;13.812;2023-05-27T10:57:09;51502.22;;;-146.96;36.75
39105;BME280;46464;51.154;13.812;2023-05-27T11:02:08;51516.44;;;-146.96;36.47
39105;BME280;46464;51.154;13.812;2023-05-27T11:04:35;51522.56;;;-146.96;36.70
39105;BME280;46464;51.154;13.812;2023-05-27T11:07:02;51544.94;;;-146.96;36.47
39105;BME280;46464;51.154;13.812;2023-05-27T11:12:14;51494.06;;;-146.96;35.29
39105;BME280;46464;51.154;13.812;2023-05-27T11:14:49;51516.44;;;-146.96;36.14
39105;BME280;46464;51.154;13.812;2023-05-27T11:17:17;51485.94;;;-146.96;36.73
39105;BME280;46464;51.154;13.812;2023-05-27T11:19:44;51514.41;;;-146.96;38.23
39105;BME280;46464;51.154;13.812;2023-05-27T11:22:19;51500.19;;;-146.96;37.23
39105;BME280;46464;51.154;13.812;2023-05-27T11:24:59;51467.63;;;-146.96;35.72
39105;BME280;46464;51.154;13.812;2023-05-27T11:27:35;51459.50;;;-146.96;35.52
39105;BME280;46464;51.154;13.812;2023-05-27T11:30:11;51459.50;;;-146.96;38.87
39105;BME280;46464;51.154;13.812;2023-05-27T11:32:42;51479.84;;;-146.96;35.00
39105;BME280;46464;51.154;13.812;2023-05-27T11:35:16;51492.03;;;-146.96;34.16
39105;BME280;46464;51.154;13.812;2023-05-27T11:37:48;51494.06;;;-146.96;33.20
39105;BME280;46464;51.154;13.812;2023-05-27T11:40:15;51508.31;;;-146.96;35.20
39105;BME280;46464;51.154;13.812;2023-05-27T11:42:44;51522.56;;;-146.96;35.49
39105;BME280;46464;51.154;13.812;2023-05-27T11:45:16;51506.28;;;-146.96;35.72
39105;BME280;46464;51.154;13.812;2023-05-27T11:47:43;51490.00;;;-146.96;35.05
39105;BME280;46464;51.154;13.812;2023-05-27T11:50:09;51487.97;;;-146.96;33.39
39105;BME280;46464;51.154;13.812;2023-05-27T11:52:49;51487.97;;;-146.96;34.07
39105;BME280;46464;51.154;13.812;2023-05-27T11:55:16;51516.44;;;-146.96;33.86
39105;BME280;46464;51.154;13.812;2023-05-27T11:57:42;51494.06;;;-146.96;35.46
39105;BME280;46464;51.154;13.812;2023-05-27T12:00:08;51494.06;;;-146.96;33.57
39105;BME280;46464;51.154;13.812;2023-05-27T12:02:35;51469.66;;;-146.96;34.81
39105;BME280;46464;51.154;13.812;2023-05-27T12:05:02;51459.50;;;-146.96;33.54
39105;BME280;46464;51.154;13.812;2023-05-27T12:07:29;51490.00;;;-146.96;33.12
39105;BME280;46464;51.154;13.812;2023-05-27T12:09:55;51516.44;;;-146.96;35.14
39105;BME280;46464;51.154;13.812;2023-05-27T12:12:21;51485.94;;;-146.96;33.67
39105;BME280;46464;51.154;13.812;2023-05-27T12:14:48;51492.03;;;-146.96;32.05
39105;BME280;46464;51.154;13.812;2023-05-27T12:17:14;51487.97;;;-146.96;33.96
39105;BME280;46464;51.154;13.812;2023-05-27T12:19:41;51498.16;;;-146.96;34.12
39105;BME280;46464;51.154;13.812;2023-05-27T12:22:09;51487.97;;;-146.96;33.79
39105;BME280;46464;51.154;13.812;2023-05-27T12:24:35;51502.22;;;-146.96;34.23
39105;BME280;46464;51.154;13.812;2023-05-27T12:27:02;51498.16;;;-146.96;34.33
39105;BME280;46464;51.154;13.812;2023-05-27T12:29:28;51487.97;;;-146.96;34.85
39105;BME280;46464;51.154;13.812;2023-05-27T12:31:56;51498.16;;;-146.96;34.83
39105;BME280;46464;51.154;13.812;2023-05-27T12:34:23;51441.19;;;-146.96;34.57
39105;BME280;46464;51.154;13.812;2023-05-27T12:36:50;51475.75;;;-146.96;33.68
39105;BME280;46464;51.154;13.812;2023-05-27T12:39:16;51451.34;;;-146.96;33.52
39105;BME280;46464;51.154;13.812;2023-05-27T12:41:43;51479.84;;;-146.96;31.83
39105;BME280;46464;51.154;13.812;2023-05-27T12:44:09;51475.75;;;-146.96;32.60
39105;BME280;46464;51.154;13.812;2023-05-27T12:46:36;51479.84;;;-146.96;32.76
39105;BME280;46464;51.154;13.812;2023-05-27T12:49:02;51494.06;;;-146.96;33.67
39105;BME280;46464;51.154;13.812;2023-05-27T12:51:29;51485.94;;;-146.96;34.09
39105;BME280;46464;51.154;13.812;2023-05-27T12:53:57;51471.69;;;-146.96;34.38
39105;BME280;46464;51.154;13.812;2023-05-27T12:56:23;51508.31;;;-146.96;32.62
39105;BME280;46464;51.154;13.812;2023-05-27T12:58:50;51473.72;;;-146.96;32.00
39105;BME280;46464;51.154;13.812;2023-05-27T13:01:16;51483.91;;;-146.96;31.97
39105;BME280;46464;51.154;13.812;2023-05-27T13:03:43;51469.66;;;-146.96;32.99
39105;BME280;46464;51.154;13.812;2023-05-27T13:06:09;51467.63;;;-146.96;33.79